Private Wetterstation Sandau
Wetterdaten: Montag, 28.01.2013
Datum Zeit Temp. A. Feuchte A. Luftdruck Regen Wind Richtung Richtung Taupunkt Windchill
28.01.2013 00:01 1,9 C 93 % 1004,3 hPa 0,0 l/m 12,2 km/h (2 Bft) W 270 0,9 C -1,5 C
28.01.2013 00:06 1,9 C 93 % 1004,5 hPa 0,0 l/m 6,1 km/h (2 Bft) W 270 0,9 C 0,1 C
28.01.2013 00:11 2,1 C 93 % 1004,4 hPa 0,0 l/m 9,7 km/h (2 Bft) W-SW 247 1,1 C -0,7 C
28.01.2013 00:16 2,1 C 93 % 1004,5 hPa 0,0 l/m 14,0 km/h (3 Bft) W 270 1,1 C -1,6 C
28.01.2013 00:21 2,1 C 93 % 1004,5 hPa 0,0 l/m 21,2 km/h (4 Bft) W 270 1,1 C -2,8 C
28.01.2013 00:26 2,1 C 93 % 1004,6 hPa 0,0 l/m 8,3 km/h (2 Bft) W 270 1,1 C -0,4 C
28.01.2013 00:31 2,1 C 93 % 1004,7 hPa 0,0 l/m 15,1 km/h (3 Bft) W-SW 247 1,1 C -1,8 C
28.01.2013 00:36 1,9 C 93 % 1004,6 hPa 0,0 l/m 2,9 km/h (1 Bft) W-SW 247 0,9 C 1,9 C
28.01.2013 00:41 1,9 C 93 % 1004,8 hPa 0,0 l/m 14,4 km/h (3 Bft) W-SW 247 0,9 C -2,0 C
28.01.2013 00:46 1,9 C 93 % 1005,0 hPa 0,0 l/m 13,3 km/h (3 Bft) W-SW 247 0,9 C -1,8 C
28.01.2013 00:51 1,9 C 93 % 1004,8 hPa 0,0 l/m 9,7 km/h (2 Bft) W-SW 247 0,9 C -1,0 C
28.01.2013 00:56 1,9 C 93 % 1005,0 hPa 0,0 l/m 9,0 km/h (2 Bft) W-SW 247 0,9 C -0,8 C
28.01.2013 01:01 1,9 C 93 % 1005,2 hPa 0,0 l/m 7,6 km/h (2 Bft) W-SW 247 0,9 C -0,4 C
28.01.2013 01:06 1,9 C 93 % 1005,0 hPa 0,0 l/m 6,5 km/h (2 Bft) W-SW 247 0,9 C -0,0 C
28.01.2013 01:11 1,9 C 93 % 1005,2 hPa 0,0 l/m 8,6 km/h (2 Bft) W-SW 247 0,9 C -0,7 C
28.01.2013 01:16 1,9 C 93 % 1005,4 hPa 0,0 l/m 4,7 km/h (1 Bft) W 270 0,9 C 0,7 C
28.01.2013 01:21 1,9 C 93 % 1005,2 hPa 0,0 l/m 8,3 km/h (2 Bft) W-SW 247 0,9 C -0,6 C
28.01.2013 01:26 1,9 C 93 % 1005,4 hPa 0,0 l/m 8,6 km/h (2 Bft) W-SW 247 0,9 C -0,7 C
28.01.2013 01:31 1,9 C 93 % 1005,5 hPa 0,0 l/m 10,4 km/h (2 Bft) W 270 0,9 C -1,1 C
28.01.2013 01:36 1,9 C 93 % 1005,3 hPa 0,0 l/m 4,0 km/h (1 Bft) SW 225 0,9 C 1,9 C
28.01.2013 01:41 1,9 C 93 % 1005,4 hPa 0,0 l/m 13,0 km/h (3 Bft) W 270 0,9 C -1,7 C
28.01.2013 01:46 1,9 C 93 % 1005,5 hPa 0,0 l/m 8,3 km/h (2 Bft) W-SW 247 0,9 C -0,6 C
28.01.2013 01:51 1,9 C 93 % 1005,8 hPa 0,0 l/m 7,6 km/h (2 Bft) W 270 0,9 C -0,4 C
28.01.2013 01:56 1,9 C 93 % 1005,8 hPa 0,0 l/m 9,7 km/h (2 Bft) SW 225 0,9 C -1,0 C
28.01.2013 02:01 1,9 C 93 % 1005,9 hPa 0,0 l/m 6,5 km/h (2 Bft) W-SW 247 0,9 C -0,0 C
28.01.2013 02:06 2,0 C 93 % 1006,0 hPa 0,0 l/m 8,3 km/h (2 Bft) W-SW 247 1,0 C -0,5 C
28.01.2013 02:11 2,0 C 93 % 1005,7 hPa 0,0 l/m 2,5 km/h (1 Bft) W 270 1,0 C 2,0 C
28.01.2013 02:16 2,1 C 93 % 1005,8 hPa 0,0 l/m 10,4 km/h (2 Bft) W-SW 247 1,1 C -0,9 C
28.01.2013 02:21 2,1 C 93 % 1005,8 hPa 0,0 l/m 6,5 km/h (2 Bft) W 270 1,1 C 0,2 C
28.01.2013 02:26 2,0 C 93 % 1005,7 hPa 0,0 l/m 9,7 km/h (2 Bft) W 270 1,0 C -0,9 C
28.01.2013 02:31 1,9 C 93 % 1005,7 hPa 0,0 l/m 6,1 km/h (2 Bft) W 270 0,9 C 0,1 C
28.01.2013 02:36 1,9 C 93 % 1005,6 hPa 0,0 l/m 5,8 km/h (2 Bft) W-SW 247 0,9 C 0,2 C
28.01.2013 02:41 1,9 C 93 % 1005,7 hPa 0,0 l/m 7,6 km/h (2 Bft) W 270 0,9 C -0,4 C
28.01.2013 02:46 1,9 C 93 % 1005,7 hPa 0,0 l/m 4,0 km/h (1 Bft) W-SW 247 0,9 C 1,9 C
28.01.2013 02:51 1,8 C 93 % 1005,8 hPa 0,0 l/m 3,6 km/h (1 Bft) S-SW 202 0,8 C 1,8 C
28.01.2013 02:56 1,7 C 93 % 1005,9 hPa 0,0 l/m 5,0 km/h (1 Bft) W-SW 247 0,7 C 0,3 C
28.01.2013 03:01 1,6 C 93 % 1005,9 hPa 0,0 l/m 4,3 km/h (1 Bft) SW 225 0,6 C 1,6 C
28.01.2013 03:06 1,6 C 93 % 1005,9 hPa 0,0 l/m 6,1 km/h (2 Bft) W-SW 247 0,6 C -0,2 C
28.01.2013 03:11 1,6 C 93 % 1005,8 hPa 0,0 l/m 5,4 km/h (1 Bft) W 270 0,6 C 0,1 C
28.01.2013 03:16 1,6 C 93 % 1005,9 hPa 0,0 l/m 5,8 km/h (2 Bft) W-SW 247 0,6 C -0,1 C
28.01.2013 03:21 1,5 C 93 % 1006,0 hPa 0,0 l/m 2,5 km/h (1 Bft) SW 225 0,5 C 1,5 C
28.01.2013 03:26 1,5 C 93 % 1006,2 hPa 0,0 l/m 5,4 km/h (1 Bft) W-SW 247 0,5 C -0,1 C
28.01.2013 03:31 1,5 C 93 % 1006,3 hPa 0,0 l/m 5,4 km/h (1 Bft) SW 225 0,5 C -0,1 C
28.01.2013 03:36 1,5 C 93 % 1006,4 hPa 0,0 l/m 6,8 km/h (2 Bft) W-SW 247 0,5 C -0,6 C
28.01.2013 03:41 1,5 C 93 % 1006,4 hPa 0,0 l/m 5,0 km/h (1 Bft) W-SW 247 0,5 C 0,1 C
28.01.2013 03:46 1,5 C 93 % 1006,3 hPa 0,0 l/m 12,6 km/h (3 Bft) W 270 0,5 C -2,1 C
28.01.2013 03:51 1,5 C 93 % 1006,3 hPa 0,0 l/m 5,4 km/h (1 Bft) W-SW 247 0,5 C -0,1 C
28.01.2013 03:56 1,5 C 93 % 1006,3 hPa 0,0 l/m 12,2 km/h (2 Bft) W 270 0,5 C -2,0 C
28.01.2013 04:01 1,5 C 93 % 1006,4 hPa 0,0 l/m 7,6 km/h (2 Bft) W-SW 247 0,5 C -0,9 C
28.01.2013 04:06 1,5 C 93 % 1006,3 hPa 0,0 l/m 6,1 km/h (2 Bft) W-SW 247 0,5 C -0,3 C
28.01.2013 04:11 1,4 C 93 % 1006,3 hPa 0,0 l/m 8,6 km/h (2 Bft) W-SW 247 0,4 C -1,3 C
28.01.2013 04:16 1,3 C 93 % 1006,5 hPa 0,0 l/m 5,4 km/h (1 Bft) W-SW 247 0,3 C -0,3 C
28.01.2013 04:21 1,3 C 93 % 1006,5 hPa 0,0 l/m 8,3 km/h (2 Bft) S-SW 202 0,3 C -1,3 C
28.01.2013 04:26 1,3 C 93 % 1006,6 hPa 0,0 l/m 5,8 km/h (2 Bft) SW 225 0,3 C -0,5 C
28.01.2013 04:31 1,3 C 93 % 1006,7 hPa 0,0 l/m 5,8 km/h (2 Bft) W-SW 247 0,3 C -0,5 C
28.01.2013 04:36 1,2 C 93 % 1006,6 hPa 0,0 l/m 4,0 km/h (1 Bft) SW 225 0,2 C 1,2 C
28.01.2013 04:41 1,1 C 93 % 1006,9 hPa 0,0 l/m 7,9 km/h (2 Bft) S-SW 202 0,1 C -1,4 C
28.01.2013 04:46 1,1 C 93 % 1007,0 hPa 0,0 l/m 4,3 km/h (1 Bft) SW 225 0,1 C 1,1 C
28.01.2013 04:51 0,9 C 93 % 1007,0 hPa 0,0 l/m 3,2 km/h (1 Bft) S-SW 202 -0,1 C 0,9 C
28.01.2013 04:56 0,8 C 93 % 1007,1 hPa 0,0 l/m 3,6 km/h (1 Bft) S-SW 202 -0,2 C 0,8 C
28.01.2013 05:01 0,5 C 93 % 1007,0 hPa 0,0 l/m 3,2 km/h (1 Bft) S-SW 202 -0,5 C 0,5 C
28.01.2013 05:06 0,4 C 93 % 1007,1 hPa 0,0 l/m 0,0 km/h (0 Bft) S-SW 202 -0,6 C 0,4 C
28.01.2013 05:11 0,3 C 92 % 1007,2 hPa 0,0 l/m 2,2 km/h (1 Bft) S-SW 202 -0,8 C 0,3 C
28.01.2013 05:16 0,1 C 92 % 1007,3 hPa 0,0 l/m 5,4 km/h (1 Bft) W-SW 247 -1,0 C -1,7 C
28.01.2013 05:21 0,1 C 92 % 1007,3 hPa 0,0 l/m 1,1 km/h (1 Bft) SW 225 -1,0 C 0,1 C
28.01.2013 05:26 -0,1 C 92 % 1007,4 hPa 0,0 l/m 0,0 km/h (0 Bft) S-SW 202 -1,2 C -0,1 C
28.01.2013 05:31 -0,1 C 92 % 1007,4 hPa 0,0 l/m 2,5 km/h (1 Bft) S-SW 202 -1,2 C -0,1 C
28.01.2013 05:36 -0,2 C 92 % 1007,4 hPa 0,0 l/m 4,7 km/h (1 Bft) SW 225 -1,3 C -1,7 C
28.01.2013 05:41 -0,2 C 92 % 1007,7 hPa 0,0 l/m 2,5 km/h (1 Bft) W 270 -1,3 C -0,2 C
28.01.2013 05:46 -0,4 C 92 % 1007,5 hPa 0,0 l/m 1,1 km/h (1 Bft) SW 225 -1,5 C -0,4 C
28.01.2013 05:51 -0,4 C 92 % 1007,6 hPa 0,0 l/m 6,1 km/h (2 Bft) W-SW 247 -1,5 C -2,5 C
28.01.2013 05:56 -0,3 C 92 % 1007,6 hPa 0,0 l/m 6,5 km/h (2 Bft) SW 225 -1,4 C -2,6 C
28.01.2013 06:01 -0,2 C 92 % 1008,0 hPa 0,0 l/m 10,1 km/h (2 Bft) W-SW 247 -1,3 C -3,6 C
28.01.2013 06:06 -0,1 C 92 % 1007,8 hPa 0,0 l/m 5,4 km/h (1 Bft) SW 225 -1,2 C -1,9 C
28.01.2013 06:11 0,1 C 92 % 1008,1 hPa 0,0 l/m 5,8 km/h (2 Bft) SW 225 -1,0 C -1,8 C
28.01.2013 06:16 0,3 C 92 % 1008,0 hPa 0,0 l/m 7,2 km/h (2 Bft) SW 225 -0,8 C -2,1 C
28.01.2013 06:21 0,4 C 93 % 1008,0 hPa 0,0 l/m 7,2 km/h (2 Bft) SW 225 -0,6 C -2,0 C
28.01.2013 06:26 0,4 C 93 % 1008,1 hPa 0,0 l/m 5,8 km/h (2 Bft) W-SW 247 -0,6 C -1,5 C
28.01.2013 06:31 0,5 C 93 % 1008,1 hPa 0,0 l/m 9,4 km/h (2 Bft) W-SW 247 -0,5 C -2,6 C
28.01.2013 06:36 0,6 C 93 % 1008,4 hPa 0,0 l/m 7,9 km/h (2 Bft) W-SW 247 -0,4 C -2,0 C
28.01.2013 06:41 0,6 C 93 % 1008,3 hPa 0,0 l/m 6,5 km/h (2 Bft) W-SW 247 -0,4 C -1,5 C
28.01.2013 06:46 0,7 C 93 % 1008,1 hPa 0,0 l/m 13,3 km/h (3 Bft) W 270 -0,3 C -3,2 C
28.01.2013 06:51 0,8 C 93 % 1008,3 hPa 0,0 l/m 4,3 km/h (1 Bft) SW 225 -0,2 C 0,8 C
28.01.2013 06:56 0,8 C 93 % 1008,5 hPa 0,0 l/m 10,8 km/h (2 Bft) W-SW 247 -0,2 C -2,6 C
28.01.2013 07:01 0,9 C 93 % 1008,4 hPa 0,0 l/m 5,8 km/h (2 Bft) W 270 -0,1 C -0,9 C
28.01.2013 07:06 0,9 C 93 % 1008,6 hPa 0,0 l/m 13,3 km/h (3 Bft) W 270 -0,1 C -3,0 C
28.01.2013 07:11 1,1 C 93 % 1008,7 hPa 0,0 l/m 5,4 km/h (1 Bft) SW 225 0,1 C -0,5 C
28.01.2013 07:16 1,1 C 93 % 1008,6 hPa 0,0 l/m 5,8 km/h (2 Bft) W-SW 247 0,1 C -0,7 C
28.01.2013 07:21 1,1 C 93 % 1008,5 hPa 0,0 l/m 4,7 km/h (1 Bft) SW 225 0,1 C -0,2 C
28.01.2013 07:26 1,1 C 93 % 1008,7 hPa 0,0 l/m 8,3 km/h (2 Bft) SW 225 0,1 C -1,5 C
28.01.2013 07:31 1,1 C 93 % 1008,7 hPa 0,0 l/m 6,1 km/h (2 Bft) W-SW 247 0,1 C -0,8 C
28.01.2013 07:36 1,1 C 93 % 1008,8 hPa 0,0 l/m 7,2 km/h (2 Bft) W-SW 247 0,1 C -1,2 C
28.01.2013 07:41 1,1 C 93 % 1008,7 hPa 0,0 l/m 6,1 km/h (2 Bft) W 270 0,1 C -0,8 C
28.01.2013 07:46 1,1 C 93 % 1008,8 hPa 0,0 l/m 9,4 km/h (2 Bft) W-SW 247 0,1 C -1,8 C
28.01.2013 07:51 1,1 C 93 % 1008,8 hPa 0,0 l/m 5,0 km/h (1 Bft) W-SW 247 0,1 C -0,3 C
28.01.2013 07:56 1,0 C 93 % 1009,0 hPa 0,0 l/m 2,2 km/h (1 Bft) SW 225 -0,0 C 1,0 C
28.01.2013 08:01 1,0 C 93 % 1009,2 hPa 0,0 l/m 4,7 km/h (1 Bft) SW 225 -0,0 C -0,3 C
28.01.2013 08:06 0,9 C 93 % 1009,1 hPa 0,0 l/m 5,0 km/h (1 Bft) S-SW 202 -0,1 C -0,6 C
28.01.2013 08:11 0,9 C 93 % 1009,3 hPa 0,0 l/m 0,0 km/h (0 Bft) SW 225 -0,1 C 0,9 C
28.01.2013 08:16 0,8 C 93 % 1009,5 hPa 0,0 l/m 0,0 km/h (0 Bft) SW 225 -0,2 C 0,8 C
28.01.2013 08:21 0,6 C 93 % 1009,3 hPa 0,0 l/m 0,0 km/h (0 Bft) SW 225 -0,4 C 0,6 C
28.01.2013 08:26 0,4 C 93 % 1009,6 hPa 0,0 l/m 0,0 km/h (0 Bft) SW 225 -0,6 C 0,4 C
28.01.2013 08:31 0,3 C 92 % 1009,5 hPa 0,0 l/m 1,8 km/h (1 Bft) S-SW 202 -0,8 C 0,3 C
28.01.2013 08:36 0,2 C 92 % 1009,7 hPa 0,0 l/m 2,9 km/h (1 Bft) S-SW 202 -0,9 C 0,2 C
28.01.2013 08:41 0,1 C 92 % 1009,7 hPa 0,0 l/m 0,0 km/h (0 Bft) S-SW 202 -1,0 C 0,1 C
28.01.2013 08:46 0,1 C 92 % 1009,8 hPa 0,0 l/m 0,0 km/h (0 Bft) S-SW 202 -1,0 C 0,1 C
28.01.2013 08:51 0,1 C 92 % 1009,8 hPa 0,0 l/m 0,0 km/h (0 Bft) S-SW 202 -1,0 C 0,1 C
28.01.2013 08:56 0,1 C 92 % 1010,0 hPa 0,0 l/m 2,2 km/h (1 Bft) S-SW 202 -1,0 C 0,1 C
28.01.2013 09:01 0,1 C 92 % 1010,0 hPa 0,0 l/m 1,4 km/h (1 Bft) S 180 -1,0 C 0,1 C
28.01.2013 09:06 0,2 C 92 % 1010,1 hPa 0,0 l/m 2,2 km/h (1 Bft) SW 225 -0,9 C 0,2 C
28.01.2013 09:11 0,4 C 93 % 1010,2 hPa 0,0 l/m 4,7 km/h (1 Bft) S-SW 202 -0,6 C -1,0 C
28.01.2013 09:16 0,5 C 93 % 1010,3 hPa 0,0 l/m 8,3 km/h (2 Bft) W-SW 247 -0,5 C -2,2 C
28.01.2013 09:21 0,8 C 93 % 1010,2 hPa 0,0 l/m 6,5 km/h (2 Bft) SW 225 -0,2 C -1,3 C
28.01.2013 09:26 0,9 C 93 % 1010,3 hPa 0,0 l/m 6,8 km/h (2 Bft) W-SW 247 -0,1 C -1,3 C
28.01.2013 09:31 1,3 C 93 % 1010,6 hPa 0,0 l/m 7,2 km/h (2 Bft) W-SW 247 0,3 C -1,0 C
28.01.2013 09:36 1,4 C 93 % 1010,6 hPa 0,0 l/m 6,8 km/h (2 Bft) SW 225 0,4 C -0,7 C
28.01.2013 09:41 1,6 C 93 % 1010,5 hPa 0,0 l/m 8,6 km/h (2 Bft) SW 225 0,6 C -1,0 C
28.01.2013 09:46 1,9 C 93 % 1010,6 hPa 0,0 l/m 10,8 km/h (2 Bft) S-SW 202 0,9 C -1,2 C
28.01.2013 09:51 2,1 C 93 % 1010,6 hPa 0,0 l/m 11,5 km/h (2 Bft) W-SW 247 1,1 C -1,2 C
28.01.2013 09:56 2,2 C 92 % 1010,6 hPa 0,0 l/m 13,0 km/h (3 Bft) W 270 1,0 C -1,3 C
28.01.2013 10:01 2,3 C 92 % 1010,7 hPa 0,0 l/m 10,1 km/h (2 Bft) W 270 1,1 C -0,6 C
28.01.2013 10:06 2,4 C 92 % 1010,7 hPa 0,0 l/m 5,4 km/h (1 Bft) S-SW 202 1,2 C 1,0 C
28.01.2013 10:11 2,5 C 92 % 1010,6 hPa 0,0 l/m 6,5 km/h (2 Bft) SW 225 1,3 C 0,7 C
28.01.2013 10:16 2,5 C 92 % 1010,8 hPa 0,0 l/m 4,7 km/h (1 Bft) S-SW 202 1,3 C 1,4 C
28.01.2013 10:21 2,6 C 91 % 1010,8 hPa 0,0 l/m 15,5 km/h (3 Bft) W-SW 247 1,3 C -1,3 C
28.01.2013 10:26 2,6 C 91 % 1010,9 hPa 0,5 l/m 9,0 km/h (2 Bft) SW 225 1,3 C 0,0 C
28.01.2013 10:31 2,7 C 91 % 1010,9 hPa 0,0 l/m 8,6 km/h (2 Bft) W-SW 247 1,4 C 0,3 C
28.01.2013 10:36 2,8 C 91 % 1011,0 hPa 0,0 l/m 8,3 km/h (2 Bft) SW 225 1,5 C 0,5 C
28.01.2013 10:41 2,8 C 91 % 1011,2 hPa 0,0 l/m 4,0 km/h (1 Bft) W 270 1,5 C 2,8 C
28.01.2013 10:46 2,9 C 91 % 1011,4 hPa 0,0 l/m 5,4 km/h (1 Bft) W-SW 247 1,6 C 1,5 C
28.01.2013 10:51 2,9 C 90 % 1011,4 hPa 0,0 l/m 10,4 km/h (2 Bft) SW 225 1,4 C 0,1 C
28.01.2013 10:56 2,9 C 90 % 1011,4 hPa 0,0 l/m 9,7 km/h (2 Bft) W-SW 247 1,4 C 0,2 C
28.01.2013 11:01 3,0 C 90 % 1011,5 hPa 0,0 l/m 8,6 km/h (2 Bft) S 180 1,5 C 0,6 C
28.01.2013 11:06 2,9 C 90 % 1011,6 hPa 0,0 l/m 10,4 km/h (2 Bft) SW 225 1,4 C 0,1 C
28.01.2013 11:11 3,0 C 89 % 1011,5 hPa 0,0 l/m 9,4 km/h (2 Bft) W-SW 247 1,4 C 0,4 C
28.01.2013 11:16 3,0 C 89 % 1011,7 hPa 0,0 l/m 9,7 km/h (2 Bft) W-SW 247 1,4 C 0,3 C
28.01.2013 11:21 3,1 C 89 % 1011,7 hPa 0,0 l/m 9,7 km/h (2 Bft) W-SW 247 1,5 C 0,5 C
28.01.2013 11:26 3,1 C 89 % 1011,7 hPa 0,0 l/m 14,4 km/h (3 Bft) W-SW 247 1,5 C -0,5 C
28.01.2013 11:31 3,2 C 89 % 1011,8 hPa 0,0 l/m 13,3 km/h (3 Bft) SW 225 1,6 C -0,2 C
28.01.2013 11:36 3,2 C 89 % 1011,9 hPa 0,0 l/m 12,6 km/h (3 Bft) S-SW 202 1,6 C -0,0 C
28.01.2013 11:41 3,3 C 89 % 1011,9 hPa 0,0 l/m 10,1 km/h (2 Bft) S 180 1,7 C 0,6 C
28.01.2013 11:46 3,3 C 89 % 1011,7 hPa 0,0 l/m 8,3 km/h (2 Bft) S-SW 202 1,7 C 1,1 C
28.01.2013 11:51 3,4 C 88 % 1011,8 hPa 0,0 l/m 14,0 km/h (3 Bft) W-SW 247 1,6 C -0,1 C
28.01.2013 11:56 3,4 C 88 % 1011,9 hPa 0,0 l/m 6,5 km/h (2 Bft) S-SW 202 1,6 C 1,7 C
28.01.2013 12:01 3,6 C 88 % 1011,9 hPa 0,0 l/m 15,1 km/h (3 Bft) W-SW 247 1,8 C 0,0 C
28.01.2013 12:06 3,6 C 88 % 1011,9 hPa 0,0 l/m 10,4 km/h (2 Bft) W-SW 247 1,8 C 0,9 C
28.01.2013 12:11 3,8 C 87 % 1012,1 hPa 0,0 l/m 9,7 km/h (2 Bft) S-SW 202 1,8 C 1,3 C
28.01.2013 12:16 3,9 C 87 % 1012,1 hPa 0,0 l/m 8,3 km/h (2 Bft) SW 225 1,9 C 1,8 C
28.01.2013 12:21 3,9 C 87 % 1012,1 hPa 0,0 l/m 6,1 km/h (2 Bft) S-SW 202 1,9 C 2,4 C
28.01.2013 12:26 3,9 C 87 % 1012,1 hPa 0,0 l/m 8,3 km/h (2 Bft) S-SW 202 1,9 C 1,8 C
28.01.2013 12:31 3,9 C 87 % 1012,1 hPa 0,0 l/m 10,4 km/h (2 Bft) SW 225 1,9 C 1,3 C
28.01.2013 12:36 3,9 C 86 % 1012,1 hPa 0,0 l/m 9,7 km/h (2 Bft) S-SW 202 1,8 C 1,4 C
28.01.2013 12:41 3,9 C 86 % 1012,1 hPa 0,0 l/m 9,4 km/h (2 Bft) SW 225 1,8 C 1,5 C
28.01.2013 12:46 4,0 C 86 % 1012,2 hPa 0,0 l/m 11,5 km/h (2 Bft) S-SW 202 1,9 C 1,1 C
28.01.2013 12:51 4,1 C 86 % 1012,1 hPa 0,0 l/m 4,0 km/h (1 Bft) S-SW 202 2,0 C 4,1 C
28.01.2013 12:56 4,3 C 86 % 1012,3 hPa 0,5 l/m 12,2 km/h (2 Bft) S-SW 202 2,2 C 1,4 C
28.01.2013 13:01 4,3 C 86 % 1012,1 hPa 0,0 l/m 8,3 km/h (2 Bft) SW 225 2,2 C 2,2 C
28.01.2013 13:06 4,3 C 85 % 1012,3 hPa 0,0 l/m 13,0 km/h (3 Bft) SW 225 2,0 C 1,2 C
28.01.2013 13:11 4,4 C 85 % 1012,3 hPa 0,0 l/m 5,0 km/h (1 Bft) S-SW 202 2,1 C 3,4 C
28.01.2013 13:16 4,5 C 85 % 1012,1 hPa 0,0 l/m 7,9 km/h (2 Bft) W-SW 247 2,2 C 2,6 C
28.01.2013 13:21 4,8 C 85 % 1012,1 hPa 0,0 l/m 8,6 km/h (2 Bft) W-SW 247 2,5 C 2,7 C
28.01.2013 13:26 4,9 C 85 % 1012,2 hPa 0,0 l/m 5,4 km/h (1 Bft) S-SW 202 2,6 C 3,8 C
28.01.2013 13:31 4,9 C 84 % 1012,4 hPa 0,0 l/m 10,1 km/h (2 Bft) SW 225 2,4 C 2,5 C
28.01.2013 13:36 4,9 C 84 % 1012,4 hPa 0,0 l/m 13,0 km/h (3 Bft) S-SW 202 2,4 C 2,0 C
28.01.2013 13:41 4,9 C 83 % 1012,5 hPa 0,0 l/m 7,2 km/h (2 Bft) SW 225 2,3 C 3,2 C
28.01.2013 13:46 4,9 C 83 % 1012,4 hPa 0,0 l/m 9,0 km/h (2 Bft) SW 225 2,3 C 2,8 C
28.01.2013 13:51 4,9 C 83 % 1012,4 hPa 0,0 l/m 9,7 km/h (2 Bft) S-SW 202 2,3 C 2,6 C
28.01.2013 13:56 4,8 C 83 % 1012,4 hPa 0,0 l/m 4,0 km/h (1 Bft) W-SW 247 2,2 C 4,8 C
28.01.2013 14:01 4,7 C 83 % 1012,5 hPa 0,0 l/m 5,0 km/h (1 Bft) W-SW 247 2,1 C 3,7 C
28.01.2013 14:06 4,8 C 83 % 1012,6 hPa 0,0 l/m 4,7 km/h (1 Bft) S 180 2,2 C 4,0 C
28.01.2013 14:11 4,8 C 83 % 1012,6 hPa 0,0 l/m 9,4 km/h (2 Bft) SW 225 2,2 C 2,6 C
28.01.2013 14:16 4,9 C 83 % 1012,8 hPa 0,0 l/m 9,0 km/h (2 Bft) W-SW 247 2,3 C 2,8 C
28.01.2013 14:21 4,8 C 82 % 1012,8 hPa 0,0 l/m 10,8 km/h (2 Bft) W-SW 247 2,0 C 2,2 C
28.01.2013 14:26 4,7 C 82 % 1012,7 hPa 0,0 l/m 6,5 km/h (2 Bft) W-SW 247 1,9 C 3,2 C
28.01.2013 14:31 4,6 C 82 % 1012,8 hPa 0,0 l/m 7,6 km/h (2 Bft) SW 225 1,8 C 2,8 C
28.01.2013 14:36 4,6 C 82 % 1012,8 hPa 0,0 l/m 8,6 km/h (2 Bft) SW 225 1,8 C 2,5 C
28.01.2013 14:41 4,8 C 82 % 1012,9 hPa 0,0 l/m 7,9 km/h (2 Bft) S 180 2,0 C 2,9 C
28.01.2013 14:46 4,9 C 82 % 1012,9 hPa 0,0 l/m 6,5 km/h (2 Bft) SW 225 2,1 C 3,4 C
28.01.2013 14:51 5,1 C 81 % 1012,8 hPa 0,0 l/m 7,2 km/h (2 Bft) S-SW 202 2,1 C 3,5 C
28.01.2013 14:56 5,1 C 81 % 1012,9 hPa 0,0 l/m 4,3 km/h (1 Bft) SW 225 2,1 C 5,1 C
28.01.2013 15:01 5,1 C 80 % 1012,9 hPa 0,0 l/m 10,1 km/h (2 Bft) W-SW 247 1,9 C 2,8 C
28.01.2013 15:06 4,9 C 80 % 1013,0 hPa 0,0 l/m 10,1 km/h (2 Bft) SW 225 1,7 C 2,5 C
28.01.2013 15:11 4,8 C 81 % 1013,2 hPa 0,0 l/m 7,6 km/h (2 Bft) SW 225 1,8 C 3,0 C
28.01.2013 15:16 4,7 C 81 % 1013,2 hPa 0,0 l/m 11,9 km/h (2 Bft) W-SW 247 1,7 C 1,9 C
28.01.2013 15:21 4,6 C 81 % 1013,1 hPa 0,0 l/m 9,4 km/h (2 Bft) W-SW 247 1,6 C 2,3 C
28.01.2013 15:26 4,4 C 81 % 1013,1 hPa 0,0 l/m 8,6 km/h (2 Bft) SW 225 1,4 C 2,3 C
28.01.2013 15:31 4,4 C 81 % 1013,1 hPa 0,0 l/m 11,2 km/h (2 Bft) W-SW 247 1,4 C 1,7 C
28.01.2013 15:36 4,3 C 82 % 1013,2 hPa 0,0 l/m 9,4 km/h (2 Bft) W-SW 247 1,5 C 2,0 C
28.01.2013 15:41 4,2 C 82 % 1013,2 hPa 0,0 l/m 3,6 km/h (1 Bft) SW 225 1,4 C 4,2 C
28.01.2013 15:46 4,1 C 82 % 1013,2 hPa 0,0 l/m 6,8 km/h (2 Bft) W-SW 247 1,3 C 2,4 C
28.01.2013 15:51 4,1 C 82 % 1013,1 hPa 0,0 l/m 6,1 km/h (2 Bft) S-SW 202 1,3 C 2,7 C
28.01.2013 15:56 3,9 C 82 % 1013,1 hPa 0,0 l/m 7,6 km/h (2 Bft) S-SW 202 1,1 C 2,0 C
28.01.2013 16:01 3,9 C 82 % 1013,2 hPa 0,0 l/m 5,8 km/h (2 Bft) S-SW 202 1,1 C 2,5 C
28.01.2013 16:06 3,9 C 82 % 1013,2 hPa 0,0 l/m 9,7 km/h (2 Bft) W-SW 247 1,1 C 1,4 C
28.01.2013 16:11 3,8 C 83 % 1013,2 hPa 0,0 l/m 8,6 km/h (2 Bft) SW 225 1,2 C 1,6 C
28.01.2013 16:16 3,8 C 83 % 1013,1 hPa 0,0 l/m 7,2 km/h (2 Bft) SW 225 1,2 C 2,0 C
28.01.2013 16:21 3,8 C 83 % 1013,3 hPa 0,0 l/m 5,0 km/h (1 Bft) SW 225 1,2 C 2,7 C
28.01.2013 16:26 3,8 C 83 % 1013,4 hPa 0,0 l/m 7,6 km/h (2 Bft) W-SW 247 1,2 C 1,8 C
28.01.2013 16:31 3,8 C 83 % 1013,3 hPa 0,0 l/m 2,9 km/h (1 Bft) SW 225 1,2 C 3,8 C
28.01.2013 16:36 3,8 C 84 % 1013,4 hPa 0,0 l/m 4,7 km/h (1 Bft) W-SW 247 1,4 C 2,8 C
28.01.2013 16:41 3,6 C 84 % 1013,5 hPa 0,0 l/m 11,5 km/h (2 Bft) W 270 1,2 C 0,7 C
28.01.2013 16:46 3,6 C 84 % 1013,5 hPa 0,0 l/m 9,0 km/h (2 Bft) SW 225 1,2 C 1,2 C
28.01.2013 16:51 3,6 C 84 % 1013,7 hPa 0,0 l/m 5,8 km/h (2 Bft) SW 225 1,2 C 2,2 C
28.01.2013 16:56 3,5 C 84 % 1013,7 hPa 0,0 l/m 5,8 km/h (2 Bft) SW 225 1,1 C 2,1 C
28.01.2013 17:01 3,4 C 84 % 1013,7 hPa 0,0 l/m 7,6 km/h (2 Bft) S 180 1,0 C 1,4 C
28.01.2013 17:06 3,4 C 84 % 1013,8 hPa 0,0 l/m 5,0 km/h (1 Bft) S-SW 202 1,0 C 2,3 C
28.01.2013 17:11 3,3 C 84 % 1013,7 hPa 0,0 l/m 6,5 km/h (2 Bft) SW 225 0,9 C 1,6 C
28.01.2013 17:16 3,3 C 84 % 1013,8 hPa 0,0 l/m 4,0 km/h (1 Bft) SW 225 0,9 C 3,3 C
28.01.2013 17:21 3,2 C 84 % 1013,8 hPa 0,0 l/m 7,9 km/h (2 Bft) W-SW 247 0,8 C 1,0 C
28.01.2013 17:26 3,2 C 85 % 1013,7 hPa 0,0 l/m 4,0 km/h (1 Bft) S-SW 202 0,9 C 3,2 C
28.01.2013 17:31 3,2 C 85 % 1013,8 hPa 0,0 l/m 7,2 km/h (2 Bft) W-SW 247 0,9 C 1,3 C
28.01.2013 17:36 3,1 C 85 % 1013,9 hPa 0,0 l/m 3,2 km/h (1 Bft) S-SW 202 0,8 C 3,1 C
28.01.2013 17:41 3,1 C 85 % 1013,9 hPa 0,0 l/m 6,5 km/h (2 Bft) W-SW 247 0,8 C 1,4 C
28.01.2013 17:46 3,1 C 85 % 1013,8 hPa 0,0 l/m 3,2 km/h (1 Bft) S-SW 202 0,8 C 3,1 C
28.01.2013 17:51 3,0 C 85 % 1013,8 hPa 0,0 l/m 2,5 km/h (1 Bft) S-SW 202 0,7 C 3,0 C
28.01.2013 17:56 2,9 C 85 % 1013,9 hPa 0,0 l/m 6,5 km/h (2 Bft) S-SW 202 0,6 C 1,1 C
28.01.2013 18:01 2,9 C 86 % 1013,9 hPa 0,0 l/m 2,5 km/h (1 Bft) S-SW 202 0,8 C 2,9 C
28.01.2013 18:06 2,9 C 86 % 1013,9 hPa 0,0 l/m 4,3 km/h (1 Bft) S-SW 202 0,8 C 2,9 C
28.01.2013 18:11 2,8 C 86 % 1014,0 hPa 0,0 l/m 0,0 km/h (0 Bft) SW 225 0,7 C 2,8 C
28.01.2013 18:16 2,7 C 86 % 1014,1 hPa 0,0 l/m 4,7 km/h (1 Bft) S-SO 157 0,6 C 1,6 C
28.01.2013 18:21 2,6 C 86 % 1014,1 hPa 0,0 l/m 4,0 km/h (1 Bft) S-SW 202 0,5 C 2,6 C
28.01.2013 18:26 2,6 C 86 % 1014,1 hPa 0,0 l/m 6,1 km/h (2 Bft) W-SW 247 0,5 C 0,9 C
28.01.2013 18:31 2,6 C 87 % 1014,2 hPa 0,0 l/m 6,1 km/h (2 Bft) S 180 0,7 C 0,9 C
28.01.2013 18:36 2,6 C 87 % 1014,2 hPa 0,0 l/m 3,6 km/h (1 Bft) S-SW 202 0,7 C 2,6 C
28.01.2013 18:41 2,6 C 87 % 1014,2 hPa 0,0 l/m 5,8 km/h (2 Bft) S 180 0,7 C 1,0 C
28.01.2013 18:46 2,7 C 87 % 1014,0 hPa 0,0 l/m 2,9 km/h (1 Bft) S 180 0,8 C 2,7 C
28.01.2013 18:51 2,7 C 87 % 1014,1 hPa 0,0 l/m 3,2 km/h (1 Bft) S 180 0,8 C 2,7 C
28.01.2013 18:56 2,6 C 87 % 1014,1 hPa 0,0 l/m 6,1 km/h (2 Bft) S 180 0,7 C 0,9 C
28.01.2013 19:01 2,6 C 87 % 1014,2 hPa 0,0 l/m 4,3 km/h (1 Bft) SW 225 0,7 C 2,6 C
28.01.2013 19:06 2,5 C 87 % 1014,1 hPa 0,0 l/m 10,4 km/h (2 Bft) SW 225 0,6 C -0,4 C
28.01.2013 19:11 2,5 C 87 % 1014,2 hPa 0,0 l/m 7,6 km/h (2 Bft) S-SW 202 0,6 C 0,3 C
28.01.2013 19:16 2,5 C 87 % 1014,0 hPa 0,0 l/m 3,6 km/h (1 Bft) S-SW 202 0,6 C 2,5 C
28.01.2013 19:21 2,5 C 87 % 1014,0 hPa 0,0 l/m 6,1 km/h (2 Bft) W-SW 247 0,6 C 0,8 C
28.01.2013 19:26 2,4 C 87 % 1013,9 hPa 0,0 l/m 9,0 km/h (2 Bft) W-SW 247 0,5 C -0,2 C
28.01.2013 19:31 2,4 C 87 % 1013,9 hPa 0,0 l/m 3,6 km/h (1 Bft) S-SO 157 0,5 C 2,4 C
28.01.2013 19:36 2,4 C 87 % 1013,8 hPa 0,0 l/m 4,7 km/h (1 Bft) S-SW 202 0,5 C 1,3 C
28.01.2013 19:41 2,3 C 87 % 1013,7 hPa 0,0 l/m 7,9 km/h (2 Bft) S-SW 202 0,4 C -0,0 C
28.01.2013 19:46 2,3 C 87 % 1013,7 hPa 0,0 l/m 5,0 km/h (1 Bft) S-SW 202 0,4 C 1,0 C
28.01.2013 19:51 2,3 C 87 % 1013,6 hPa 0,0 l/m 5,8 km/h (2 Bft) S-SW 202 0,4 C 0,7 C
28.01.2013 19:56 2,3 C 87 % 1013,5 hPa 0,0 l/m 3,6 km/h (1 Bft) SW 225 0,4 C 2,3 C
28.01.2013 20:01 2,3 C 87 % 1013,6 hPa 0,0 l/m 10,1 km/h (2 Bft) SW 225 0,4 C -0,6 C
28.01.2013 20:06 2,3 C 87 % 1013,5 hPa 0,0 l/m 5,4 km/h (1 Bft) W-SW 247 0,4 C 0,9 C
28.01.2013 20:11 2,3 C 88 % 1013,5 hPa 0,0 l/m 9,4 km/h (2 Bft) W-SW 247 0,5 C -0,4 C
28.01.2013 20:16 2,3 C 88 % 1013,3 hPa 0,0 l/m 3,6 km/h (1 Bft) S-SW 202 0,5 C 2,3 C
28.01.2013 20:21 2,3 C 88 % 1013,1 hPa 0,0 l/m 7,2 km/h (2 Bft) SW 225 0,5 C 0,2 C
28.01.2013 20:26 2,3 C 88 % 1013,0 hPa 0,0 l/m 5,8 km/h (2 Bft) S-SW 202 0,5 C 0,7 C
28.01.2013 20:31 2,3 C 88 % 1013,1 hPa 0,0 l/m 16,6 km/h (3 Bft) S-SW 202 0,5 C -1,8 C
28.01.2013 20:36 2,2 C 88 % 1013,1 hPa 0,0 l/m 7,2 km/h (2 Bft) S 180 0,4 C 0,1 C
28.01.2013 20:41 2,2 C 88 % 1013,1 hPa 0,0 l/m 6,1 km/h (2 Bft) S 180 0,4 C 0,5 C
28.01.2013 20:46 2,2 C 88 % 1013,1 hPa 0,0 l/m 4,0 km/h (1 Bft) S-SO 157 0,4 C 2,2 C
28.01.2013 20:51 2,2 C 88 % 1013,0 hPa 0,0 l/m 3,6 km/h (1 Bft) SW 225 0,4 C 2,2 C
28.01.2013 20:56 2,1 C 88 % 1013,1 hPa 0,0 l/m 4,0 km/h (1 Bft) S-SW 202 0,3 C 2,1 C
28.01.2013 21:01 2,1 C 88 % 1013,1 hPa 0,0 l/m 3,6 km/h (1 Bft) S 180 0,3 C 2,1 C
28.01.2013 21:06 2,1 C 88 % 1013,0 hPa 0,0 l/m 8,6 km/h (2 Bft) SW 225 0,3 C -0,4 C
28.01.2013 21:11 2,1 C 88 % 1012,9 hPa 0,0 l/m 10,4 km/h (2 Bft) S-SO 157 0,3 C -0,9 C
28.01.2013 21:16 2,1 C 88 % 1012,9 hPa 0,0 l/m 10,4 km/h (2 Bft) S-SW 202 0,3 C -0,9 C
28.01.2013 21:21 2,1 C 88 % 1012,8 hPa 0,0 l/m 6,8 km/h (2 Bft) W-SW 247 0,3 C 0,1 C
28.01.2013 21:26 2,2 C 88 % 1012,7 hPa 0,0 l/m 9,7 km/h (2 Bft) SW 225 0,4 C -0,6 C
28.01.2013 21:31 2,2 C 88 % 1012,8 hPa 0,0 l/m 4,0 km/h (1 Bft) S 180 0,4 C 2,2 C
28.01.2013 21:36 2,2 C 88 % 1012,8 hPa 0,0 l/m 11,5 km/h (2 Bft) SW 225 0,4 C -1,0 C
28.01.2013 21:41 2,2 C 88 % 1012,9 hPa 0,0 l/m 6,5 km/h (2 Bft) S-SW 202 0,4 C 0,3 C
28.01.2013 21:46 2,2 C 88 % 1013,1 hPa 0,0 l/m 10,4 km/h (2 Bft) S-SW 202 0,4 C -0,8 C
28.01.2013 21:51 2,2 C 88 % 1013,2 hPa 0,0 l/m 5,8 km/h (2 Bft) S-SW 202 0,4 C 0,6 C
28.01.2013 21:56 2,1 C 88 % 1013,4 hPa 0,0 l/m 10,1 km/h (2 Bft) S-SW 202 0,3 C -0,8 C
28.01.2013 22:01 2,1 C 88 % 1013,4 hPa 0,0 l/m 7,2 km/h (2 Bft) S 180 0,3 C -0,0 C
28.01.2013 22:06 1,9 C 88 % 1013,2 hPa 0,0 l/m 4,0 km/h (1 Bft) S 180 0,1 C 1,9 C
28.01.2013 22:11 1,9 C 88 % 1013,3 hPa 0,0 l/m 4,7 km/h (1 Bft) S 180 0,1 C 0,7 C
28.01.2013 22:16 1,8 C 88 % 1013,2 hPa 0,0 l/m 3,6 km/h (1 Bft) S-SW 202 0,0 C 1,8 C
28.01.2013 22:21 1,8 C 88 % 1013,4 hPa 0,0 l/m 5,8 km/h (2 Bft) S-SW 202 0,0 C 0,1 C
28.01.2013 22:26 1,7 C 88 % 1013,1 hPa 0,0 l/m 3,2 km/h (1 Bft) S 180 -0,1 C 1,7 C
28.01.2013 22:31 1,6 C 88 % 1013,0 hPa 0,0 l/m 7,9 km/h (2 Bft) S-SW 202 -0,2 C -0,8 C
28.01.2013 22:36 1,6 C 88 % 1012,9 hPa 0,0 l/m 2,5 km/h (1 Bft) S-SO 157 -0,2 C 1,6 C
28.01.2013 22:41 1,5 C 88 % 1012,7 hPa 0,0 l/m 3,2 km/h (1 Bft) S 180 -0,3 C 1,5 C
28.01.2013 22:46 1,4 C 89 % 1012,8 hPa 0,0 l/m 3,6 km/h (1 Bft) S 180 -0,2 C 1,4 C
28.01.2013 22:51 1,3 C 89 % 1012,7 hPa 0,0 l/m 9,4 km/h (2 Bft) S-SW 202 -0,3 C -1,6 C
28.01.2013 22:56 1,3 C 89 % 1012,6 hPa 0,0 l/m 4,0 km/h (1 Bft) S-SW 202 -0,3 C 1,3 C
28.01.2013 23:01 1,3 C 89 % 1012,5 hPa 0,0 l/m 3,6 km/h (1 Bft) SW 225 -0,3 C 1,3 C
28.01.2013 23:06 1,3 C 89 % 1012,7 hPa 0,0 l/m 4,7 km/h (1 Bft) S-SW 202 -0,3 C 0,0 C
28.01.2013 23:11 1,3 C 89 % 1012,7 hPa 0,0 l/m 6,1 km/h (2 Bft) S 180 -0,3 C -0,6 C
28.01.2013 23:16 1,3 C 89 % 1012,6 hPa 0,0 l/m 9,4 km/h (2 Bft) SW 225 -0,3 C -1,6 C
28.01.2013 23:21 1,3 C 90 % 1012,5 hPa 0,0 l/m 11,9 km/h (2 Bft) SW 225 -0,2 C -2,2 C
28.01.2013 23:26 1,3 C 90 % 1012,4 hPa 0,0 l/m 9,7 km/h (2 Bft) SW 225 -0,2 C -1,7 C
28.01.2013 23:31 1,3 C 90 % 1012,3 hPa 0,0 l/m 7,2 km/h (2 Bft) SW 225 -0,2 C -1,0 C
28.01.2013 23:36 1,4 C 90 % 1012,1 hPa 0,0 l/m 5,0 km/h (1 Bft) S 180 -0,1 C -0,0 C
28.01.2013 23:41 1,4 C 90 % 1011,8 hPa 0,0 l/m 3,2 km/h (1 Bft) SO 135 -0,1 C 1,4 C
28.01.2013 23:46 1,4 C 90 % 1012,0 hPa 0,0 l/m 5,4 km/h (1 Bft) SW 225 -0,1 C -0,2 C
28.01.2013 23:51 1,3 C 90 % 1011,8 hPa 0,0 l/m 9,7 km/h (2 Bft) W-SW 247 -0,2 C -1,7 C
28.01.2013 23:56 1,3 C 90 % 1012,0 hPa 0,0 l/m 7,6 km/h (2 Bft) S-SW 202 -0,2 C -1,1 C
_ Min-Zeit 05:46 15:01 00:01 - 05:06 - - 05:46 06:01
Minimum _ -0,4 C 80 % 1004,3 hPa - 0,0 km/h (0 Bft) - - -1,5 C -3,6 C
_ Max-Zeit 14:51 00:01 18:31 10:26 00:21 - - 13:26 14:56
Maximum _ 5,1 C 93 % 1014,2 hPa 0,5 l/m 21,2 km/h
W (4 Bft)
- - 2,6 C 5,1 C
Durchschnitt _ 2,3 C 89 % 1010,5 hPa #1,0 l/m 6,9 km/h (2 Bft) W-SW - 0,7 C 0,6 C
(c) by David Heller